Time;durP1;ratioP1;P1;durP2;ratioP2;P2;SDS_P1;SDS_P2;PMS_P1;PMS_P2;Temp;Humidity;BMP_temperature;BMP_pressure;BME280_temperature;BME280_humidity;BME280_pressure;Samples;Min_cycle;Max_cycle;Signal;HPM_P1;HPM_P2
2023/01/06 00:02:01;;;;;;;35.25;29.27;;;;;;;5.62;100.00;96500.91;5087844;28;20111;-65
2023/01/06 00:04:27;;;;;;;36.35;28.95;;;;;;;5.61;100.00;96499.25;5079469;28;20088;-65
2023/01/06 00:06:52;;;;;;;37.00;29.30;;;;;;;5.59;100.00;96492.34;5081085;28;20028;-64
2023/01/06 00:09:17;;;;;;;33.20;27.63;;;;;;;5.59;100.00;96489.72;5088216;28;20134;-64
2023/01/06 00:11:43;;;;;;;32.45;27.00;;;;;;;5.58;100.00;96495.88;5089928;28;20039;-64
2023/01/06 00:14:08;;;;;;;25.67;22.90;;;;;;;5.57;100.00;96493.34;5085866;28;20070;-65
2023/01/06 00:16:35;;;;;;;26.38;23.55;;;;;;;5.55;100.00;96500.44;5089097;28;20134;-64
2023/01/06 00:19:00;;;;;;;24.92;21.48;;;;;;;5.50;100.00;96497.25;5088346;28;20039;-63
2023/01/06 00:21:26;;;;;;;22.83;20.27;;;;;;;5.50;100.00;96497.25;5084443;28;20504;-64
2023/01/06 00:23:52;;;;;;;24.65;20.63;;;;;;;5.51;100.00;96493.72;5088296;28;20043;-64
2023/01/06 00:26:18;;;;;;;23.08;20.65;;;;;;;5.51;100.00;96493.72;5084395;28;20036;-64
2023/01/06 00:28:43;;;;;;;25.58;20.58;;;;;;;5.49;100.00;96495.59;5085822;28;20027;-63
2023/01/06 00:31:13;;;;;;;21.98;18.80;;;;;;;5.45;100.00;96489.69;5086606;28;20032;-63
2023/01/06 00:33:40;;;;;;;21.42;18.00;;;;;;;5.45;100.00;96487.94;5081042;28;20036;-63
2023/01/06 00:36:07;;;;;;;21.60;17.30;;;;;;;5.44;100.00;96488.88;5079493;28;20040;-63
2023/01/06 00:38:35;;;;;;;20.00;17.90;;;;;;;5.43;100.00;96488.94;5072071;28;20417;-63
2023/01/06 00:41:03;;;;;;;27.67;20.35;;;;;;;5.42;100.00;96490.72;5086215;28;20103;-63
2023/01/06 00:43:30;;;;;;;22.60;19.67;;;;;;;5.41;100.00;96486.41;5087787;28;20039;-63
2023/01/06 00:45:55;;;;;;;24.05;20.60;;;;;;;5.35;100.00;96489.38;5077234;28;20736;-72
2023/01/06 00:48:21;;;;;;;22.88;18.92;;;;;;;5.35;100.00;96489.38;5084564;28;20032;-65
2023/01/06 00:50:46;;;;;;;22.23;17.75;;;;;;;5.37;100.00;96487.53;5085534;28;20030;-65
2023/01/06 00:53:11;;;;;;;20.25;17.17;;;;;;;5.40;100.00;96494.34;5081963;28;20021;-65
2023/01/06 00:55:37;;;;;;;20.05;16.20;;;;;;;5.43;100.00;96481.09;5079647;28;20119;-65
2023/01/06 00:58:02;;;;;;;19.02;15.95;;;;;;;5.45;100.00;96487.09;5083915;28;20043;-64
2023/01/06 01:00:27;;;;;;;17.20;15.20;;;;;;;5.50;100.00;96482.41;5083791;28;20035;-65
2023/01/06 01:02:52;;;;;;;16.45;14.48;;;;;;;5.55;100.00;96484.75;5084587;28;20071;-64
2023/01/06 01:05:18;;;;;;;17.52;15.60;;;;;;;5.53;100.00;96484.88;5087402;28;20078;-72
2023/01/06 01:07:43;;;;;;;18.90;16.90;;;;;;;5.48;100.00;96484.28;5079074;28;20072;-64
2023/01/06 01:10:09;;;;;;;20.55;15.90;;;;;;;5.47;100.00;96487.00;5081531;28;20060;-64
2023/01/06 01:12:34;;;;;;;19.70;16.90;;;;;;;5.47;100.00;96485.22;5085072;28;20039;-64
2023/01/06 01:15:00;;;;;;;21.10;17.58;;;;;;;5.45;100.00;96498.38;5085420;28;20358;-64
2023/01/06 01:17:28;;;;;;;19.42;17.15;;;;;;;5.47;100.00;96494.84;5081698;28;20048;-64
2023/01/06 01:19:54;;;;;;;19.30;15.52;;;;;;;5.47;100.00;96498.28;5086102;28;20055;-64
2023/01/06 01:22:21;;;;;;;16.75;13.88;;;;;;;5.52;100.00;96488.38;5081418;28;20094;-65
2023/01/06 01:24:46;;;;;;;15.52;13.93;;;;;;;5.52;100.00;96500.63;5076110;28;20036;-72
2023/01/06 01:27:12;;;;;;;15.93;14.23;;;;;;;5.50;100.00;96499.88;5088802;28;20513;-67
2023/01/06 01:29:37;;;;;;;13.68;12.32;;;;;;;5.50;100.00;96497.25;5086126;28;20043;-65
2023/01/06 01:32:03;;;;;;;14.52;12.65;;;;;;;5.47;100.00;96493.06;5078855;28;20052;-65
2023/01/06 01:34:28;;;;;;;14.35;12.32;;;;;;;5.49;100.00;96493.78;5077748;28;20036;-65
2023/01/06 01:36:55;;;;;;;14.90;13.02;;;;;;;5.49;100.00;96495.59;5078109;28;20047;-65
2023/01/06 01:39:25;;;;;;;13.95;11.80;;;;;;;5.47;100.00;96493.06;5082470;28;20055;-65
2023/01/06 01:41:52;;;;;;;13.20;11.80;;;;;;;5.48;100.00;96493.91;5083776;28;20028;-73
2023/01/06 01:44:48;;;;;;;13.48;11.90;;;;;;;5.47;100.00;96493.06;5079286;28;20032;-64
2023/01/06 01:47:20;;;;;;;10.93;9.85;;;;;;;5.50;100.00;96481.59;5075367;28;20040;-64
2023/01/06 01:49:48;;;;;;;9.05;8.15;;;;;;;5.56;100.00;96489.06;5085972;28;20052;-65
2023/01/06 01:52:14;;;;;;;9.45;7.57;;;;;;;5.59;100.00;96486.25;5078552;28;20327;-64
2023/01/06 01:54:41;;;;;;;9.25;8.30;;;;;;;5.61;100.00;96488.78;5090768;28;20035;-64
2023/01/06 01:57:14;;;;;;;9.75;8.05;;;;;;;5.63;100.00;96481.69;5087948;28;20043;-64
2023/01/06 01:59:42;;;;;;;8.25;7.45;;;;;;;5.61;100.00;96480.94;5092317;28;20028;-63
2023/01/06 02:02:08;;;;;;;9.18;6.85;;;;;;;5.59;100.00;96491.47;5090738;28;20094;-62
2023/01/06 02:04:37;;;;;;;7.45;6.75;;;;;;;5.57;100.00;96482.91;5088686;28;20501;-64
2023/01/06 02:07:05;;;;;;;10.15;6.45;;;;;;;5.58;100.00;96481.97;5092983;28;20427;-65
2023/01/06 02:09:37;;;;;;;4.60;4.30;;;;;;;5.71;100.00;96479.47;5089801;28;20028;-64
2023/01/06 02:12:03;;;;;;;3.80;3.60;;;;;;;5.80;100.00;96483.28;5091080;28;20036;-65
2023/01/06 02:14:28;;;;;;;3.75;3.45;;;;;;;5.74;100.00;96477.50;5087955;28;20548;-64
2023/01/06 02:17:24;;;;;;;3.90;3.60;;;;;;;5.85;100.00;96474.25;5090209;28;20040;-64
2023/01/06 02:20:08;;;;;;;3.60;3.30;;;;;;;5.77;100.00;96479.09;5070148;28;20040;-65
2023/01/06 02:22:43;;;;;;;3.03;2.83;;;;;;;5.79;100.00;96479.00;5086002;28;20028;-66
2023/01/06 02:25:47;;;;;;;3.30;3.10;;;;;;;5.88;100.00;96478.47;5088498;28;20024;-71
2023/01/06 02:28:34;;;;;;;3.22;2.97;;;;;;;6.01;100.00;96475.97;5088880;28;20025;-72
2023/01/06 02:31:30;;;;;;;3.35;3.05;;;;;;;6.05;100.00;96479.22;5093075;28;20047;-72
2023/01/06 02:34:26;;;;;;;3.15;2.95;;;;;;;6.07;100.00;96477.34;5089268;28;20034;-72
2023/01/06 02:36:57;;;;;;;;;;;;;;;6.10;100.00;96480.59;5089856;28;20058;-73
2023/01/06 02:39:29;;;;;;;3.13;2.92;;;;;;;6.13;100.00;96474.38;5084643;28;19912;-64
2023/01/06 02:41:57;;;;;;;3.00;2.80;;;;;;;6.19;100.00;96475.72;5086764;28;20035;-70
2023/01/06 02:44:31;;;;;;;3.70;3.40;;;;;;;6.18;100.00;96474.91;5091640;28;20502;-64
2023/01/06 02:47:11;;;;;;;3.10;2.90;;;;;;;6.13;100.00;96471.75;5081607;28;20036;-64
2023/01/06 02:50:08;;;;;;;5.25;3.00;;;;;;;6.08;100.00;96477.25;5087555;28;20028;-64
2023/01/06 02:52:56;;;;;;;3.10;2.90;;;;;;;6.09;100.00;96471.09;5066212;28;20074;-64
2023/01/06 02:55:34;;;;;;;3.63;3.38;;;;;;;6.12;100.00;96470.06;5081211;28;20086;-65
2023/01/06 02:58:18;;;;;;;3.20;3.00;;;;;;;6.08;100.00;96465.94;5085580;28;20443;-65
2023/01/06 03:01:10;;;;;;;3.55;3.25;;;;;;;5.98;100.00;96463.06;5090960;28;20028;-64
2023/01/06 03:03:38;;;;;;;3.53;3.22;;;;;;;5.90;100.00;96460.91;5075911;28;20029;-70
2023/01/06 03:06:07;;;;;;;3.60;3.20;;;;;;;5.85;100.00;96455.94;5083454;28;20060;-71
2023/01/06 03:08:35;;;;;;;3.65;3.35;;;;;;;5.83;100.00;96454.34;5078045;28;20028;-71
2023/01/06 03:11:01;;;;;;;3.58;3.28;;;;;;;5.82;100.00;96448.31;5085935;28;20406;-72
2023/01/06 03:13:51;;;;;;;4.63;3.00;;;;;;;5.84;100.00;96458.66;5089993;28;20510;-72
2023/01/06 03:16:16;;;;;;;3.25;3.00;;;;;;;5.86;100.00;96460.25;5089618;28;20032;-71
2023/01/06 03:18:46;;;;;;;3.20;2.88;;;;;;;5.89;100.00;96459.22;5088019;28;20039;-63
2023/01/06 03:21:18;;;;;;;3.50;2.95;;;;;;;5.85;100.00;96457.72;5078012;28;20032;-65
2023/01/06 03:23:45;;;;;;;3.97;3.10;;;;;;;5.87;100.00;96461.09;5089287;28;20039;-65
2023/01/06 03:26:10;;;;;;;3.50;3.20;;;;;;;5.85;100.00;96465.53;5084371;28;20186;-65
2023/01/06 03:28:36;;;;;;;5.75;3.47;;;;;;;5.81;100.00;96456.22;5082341;28;20545;-65
2023/01/06 03:31:10;;;;;;;3.15;2.95;;;;;;;5.78;100.00;96453.81;5088001;28;20051;-65
2023/01/06 03:33:52;;;;;;;3.00;2.80;;;;;;;5.72;100.00;96445.41;5086798;28;20528;-65
2023/01/06 03:36:52;;;;;;;3.80;3.47;;;;;;;5.73;100.00;96447.09;5089027;28;20405;-65
2023/01/06 03:39:32;;;;;;;3.50;3.20;;;;;;;5.68;100.00;96451.75;5065845;28;20040;-65
2023/01/06 03:45:39;;;;;;;4.28;3.50;;;;;;;5.64;100.00;96450.28;5089742;28;20035;-64
2023/01/06 03:48:42;;;;;;;5.68;3.65;;;;;;;5.58;100.00;96448.00;5075666;28;20037;-64
2023/01/06 03:51:22;;;;;;;4.25;3.60;;;;;;;5.53;100.00;96452.69;5084618;28;20116;-64
2023/01/06 03:54:04;;;;;;;4.28;3.88;;;;;;;5.52;100.00;96448.38;5085774;28;20517;-63
2023/01/06 03:56:34;;;;;;;4.43;4.00;;;;;;;5.56;100.00;96455.09;5086733;28;20028;-63
2023/01/06 03:59:05;;;;;;;4.15;3.80;;;;;;;5.50;100.00;96450.25;5085627;28;20575;-62
2023/01/06 04:01:31;;;;;;;4.20;3.90;;;;;;;5.44;100.00;96448.84;5083144;28;20039;-63
2023/01/06 04:03:57;;;;;;;4.25;3.90;;;;;;;5.40;100.00;96452.56;5071165;28;20036;-63
2023/01/06 04:06:22;;;;;;;4.80;4.40;;;;;;;5.41;100.00;96443.81;5083339;28;20036;-62
2023/01/06 04:08:48;;;;;;;4.78;4.43;;;;;;;5.36;100.00;96448.47;5077214;28;20052;-63
2023/01/06 04:13:58;;;;;;;3.90;3.58;;;;;;;5.38;100.00;96454.44;5082167;28;20031;-63
2023/01/06 04:16:23;;;;;;;3.35;3.15;;;;;;;5.45;100.00;96443.53;5081703;28;20096;-65
2023/01/06 04:18:49;;;;;;;3.78;3.40;;;;;;;5.53;100.00;96456.13;5077334;28;20538;-64
2023/01/06 04:21:14;;;;;;;3.42;3.13;;;;;;;5.48;100.00;96449.50;5086088;28;20520;-65
2023/01/06 04:23:39;;;;;;;3.40;3.10;;;;;;;5.44;100.00;96451.44;5088149;28;20464;-64
2023/01/06 04:26:05;;;;;;;5.18;3.45;;;;;;;5.42;100.00;96443.72;5089546;28;20028;-65
2023/01/06 04:28:30;;;;;;;5.43;3.33;;;;;;;5.38;100.00;96449.22;5089736;28;20057;-65
2023/01/06 04:31:00;;;;;;;4.20;3.53;;;;;;;5.40;100.00;96455.19;5090115;28;20415;-65
2023/01/06 04:33:25;;;;;;;3.92;3.63;;;;;;;5.38;100.00;96457.88;5083264;28;20583;-65
2023/01/06 04:35:51;;;;;;;3.58;3.28;;;;;;;5.37;100.00;96463.19;5086953;28;20036;-64
2023/01/06 04:38:16;;;;;;;4.30;2.60;;;;;;;5.37;100.00;96464.03;5082822;28;20032;-61
2023/01/06 04:40:42;;;;;;;3.08;2.88;;;;;;;5.38;100.00;96464.88;5090875;28;20120;-62
2023/01/06 04:43:12;;;;;;;3.75;3.45;;;;;;;5.36;100.00;96461.53;5082445;28;20051;-62
2023/01/06 04:45:39;;;;;;;4.20;3.50;;;;;;;5.35;100.00;96458.06;5080300;28;20101;-61
2023/01/06 04:48:04;;;;;;;3.30;3.00;;;;;;;5.33;100.00;96459.91;5082957;28;20089;-62
2023/01/06 04:50:30;;;;;;;11.40;9.65;;;;;;;5.33;100.00;96462.53;5086710;28;20036;-62
2023/01/06 04:52:55;;;;;;;6.05;4.63;;;;;;;5.32;100.00;96460.84;5085140;28;20048;-61
2023/01/06 04:55:20;;;;;;;4.00;3.70;;;;;;;5.32;100.00;96468.69;5088004;28;20430;-62
2023/01/06 04:57:46;;;;;;;5.03;3.65;;;;;;;5.33;100.00;96459.91;5068524;28;20112;-65
2023/01/06 05:00:12;;;;;;;3.95;3.65;;;;;;;5.33;100.00;96462.53;5088621;28;20051;-64
2023/01/06 05:02:37;;;;;;;3.33;3.00;;;;;;;5.32;100.00;96465.25;5081469;28;20033;-64
2023/01/06 05:05:03;;;;;;;3.45;3.05;;;;;;;5.33;100.00;96469.53;5083390;28;20048;-64
2023/01/06 05:07:28;;;;;;;3.25;3.05;;;;;;;5.31;100.00;96467.00;5089541;28;20039;-64
2023/01/06 05:09:53;;;;;;;3.20;3.00;;;;;;;5.30;100.00;96467.94;5088676;28;20042;-64
2023/01/06 05:12:18;;;;;;;3.45;3.22;;;;;;;5.31;100.00;96472.22;5089520;28;20047;-65
2023/01/06 05:14:44;;;;;;;4.22;3.88;;;;;;;5.33;100.00;96472.97;5087962;28;20119;-64
2023/01/06 05:17:09;;;;;;;4.10;3.88;;;;;;;5.32;100.00;96473.09;5080810;28;20131;-65
2023/01/06 05:19:34;;;;;;;3.25;3.05;;;;;;;5.30;100.00;96473.16;5082275;28;20101;-65
2023/01/06 05:22:00;;;;;;;4.90;2.55;;;;;;;5.26;100.00;96475.09;5078048;28;20036;-64
2023/01/06 05:24:25;;;;;;;5.22;2.70;;;;;;;5.27;100.00;96484.63;5085527;28;20137;-65
2023/01/06 05:26:50;;;;;;;4.07;2.50;;;;;;;5.27;100.00;96476.78;5073980;28;20028;-65
2023/01/06 05:29:16;;;;;;;2.70;2.55;;;;;;;5.28;100.00;96478.47;5089554;28;20097;-65
2023/01/06 05:31:42;;;;;;;2.42;2.28;;;;;;;5.33;100.00;96485.22;5072171;28;20452;-64
2023/01/06 05:34:09;;;;;;;2.15;2.05;;;;;;;5.29;100.00;96477.53;5069493;28;20063;-64
2023/01/06 05:36:34;;;;;;;4.70;3.38;;;;;;;5.30;98.41;96470.56;5085291;28;20436;-65
2023/01/06 05:39:00;;;;;;;1.85;1.77;;;;;;;5.44;97.75;96467.97;5088381;28;20028;-63
2023/01/06 05:41:25;;;;;;;3.53;1.95;;;;;;;5.48;96.54;96473.00;5086924;28;20040;-64
2023/01/06 05:43:50;;;;;;;2.30;2.20;;;;;;;5.44;95.97;96467.13;5088804;28;20058;-64
2023/01/06 05:46:15;;;;;;;2.20;2.10;;;;;;;5.35;95.49;96473.72;5087381;28;20066;-64
2023/01/06 05:48:41;;;;;;;2.63;2.42;;;;;;;5.29;95.84;96468.88;5088752;28;20052;-64
2023/01/06 05:51:10;;;;;;;2.40;2.30;;;;;;;5.28;96.07;96475.03;5087957;28;20619;-65
2023/01/06 05:53:38;;;;;;;2.53;2.20;;;;;;;5.33;96.29;96475.59;5088597;28;20047;-65
2023/01/06 05:56:05;;;;;;;2.22;2.13;;;;;;;5.33;95.73;96482.59;5087637;28;20024;-70
2023/01/06 05:58:32;;;;;;;2.97;2.38;;;;;;;5.21;96.49;96479.75;5089049;28;20748;-71
2023/01/06 06:00:58;;;;;;;2.50;2.40;;;;;;;5.11;97.34;96482.06;5085062;28;20453;-70
2023/01/06 06:03:23;;;;;;;3.05;2.75;;;;;;;5.08;97.49;96481.38;5083744;28;20041;-71
2023/01/06 06:05:48;;;;;;;3.53;3.22;;;;;;;5.06;97.41;96485.84;5085876;28;20437;-71
2023/01/06 06:08:14;;;;;;;3.22;3.03;;;;;;;5.02;98.28;96496.47;5088608;28;20032;-71
2023/01/06 06:10:39;;;;;;;3.55;3.10;;;;;;;5.04;98.04;96491.19;5089295;28;20048;-64
2023/01/06 06:13:05;;;;;;;4.07;3.13;;;;;;;5.01;98.10;96497.41;5089155;28;20035;-67
2023/01/06 06:15:30;;;;;;;3.00;2.80;;;;;;;5.02;98.26;96499.09;5084795;28;20173;-67
2023/01/06 06:17:55;;;;;;;3.38;3.08;;;;;;;5.01;98.57;96501.81;5083843;28;20063;-67
2023/01/06 06:20:20;;;;;;;6.22;3.45;;;;;;;5.00;98.26;96503.56;5084650;28;20115;-66
2023/01/06 06:22:46;;;;;;;5.75;2.72;;;;;;;4.99;98.60;96499.25;5083581;28;20077;-66
2023/01/06 06:25:11;;;;;;;2.95;2.78;;;;;;;4.99;98.41;96501.88;5078390;28;20040;-67
2023/01/06 06:27:37;;;;;;;2.97;2.78;;;;;;;5.02;98.80;96500.88;5083976;28;20032;-66
2023/01/06 06:30:04;;;;;;;3.53;3.22;;;;;;;5.03;98.37;96505.16;5085639;28;20032;-62
2023/01/06 06:32:30;;;;;;;2.92;2.70;;;;;;;5.02;97.72;96504.31;5075814;28;20029;-64
2023/01/06 06:34:55;;;;;;;4.40;2.70;;;;;;;4.99;97.48;96508.88;5083310;28;20031;-65
2023/01/06 06:37:20;;;;;;;3.33;3.13;;;;;;;4.96;97.80;96503.81;5086756;28;20036;-65
2023/01/06 06:39:46;;;;;;;3.83;3.53;;;;;;;4.95;98.01;96508.19;5081197;28;20395;-65
2023/01/06 06:42:11;;;;;;;4.10;3.80;;;;;;;4.95;97.94;96505.59;5091021;28;20024;-65
2023/01/06 06:44:36;;;;;;;3.80;3.50;;;;;;;4.94;98.11;96524.78;5089496;28;20051;-64
2023/01/06 06:47:02;;;;;;;3.50;3.30;;;;;;;4.95;98.72;96520.41;5088611;28;20056;-67
2023/01/06 06:49:30;;;;;;;4.32;4.03;;;;;;;4.96;98.66;96519.47;5085822;28;20129;-62
2023/01/06 06:51:55;;;;;;;4.50;4.10;;;;;;;4.90;100.00;96515.47;5088735;28;20028;-67
2023/01/06 06:54:20;;;;;;;4.35;4.05;;;;;;;4.91;100.00;96518.91;5084084;28;20032;-66
2023/01/06 06:56:45;;;;;;;4.15;3.50;;;;;;;4.88;100.00;96518.13;5087588;28;20085;-64
2023/01/06 06:59:11;;;;;;;4.10;3.83;;;;;;;4.90;99.94;96512.84;5084007;28;20036;-65
2023/01/06 07:01:36;;;;;;;4.05;3.75;;;;;;;4.90;100.00;96520.69;5089897;28;20605;-63
2023/01/06 07:04:02;;;;;;;9.35;3.75;;;;;;;4.92;100.00;96520.56;5090743;28;20470;-61
2023/01/06 07:06:27;;;;;;;10.30;7.00;;;;;;;4.93;100.00;96520.50;5090505;28;20032;-61
2023/01/06 07:08:53;;;;;;;6.38;5.88;;;;;;;4.92;100.00;96520.56;5090898;28;20584;-62
2023/01/06 07:11:19;;;;;;;6.97;6.38;;;;;;;4.93;100.00;96520.50;5080892;28;20138;-62
2023/01/06 07:13:45;;;;;;;4.90;3.80;;;;;;;4.94;100.00;96518.72;5087651;28;20035;-62
2023/01/06 07:16:11;;;;;;;4.45;3.60;;;;;;;4.93;100.00;96525.72;5085274;28;20425;-63
2023/01/06 07:18:37;;;;;;;7.68;4.55;;;;;;;4.94;100.00;96518.72;5086260;28;20036;-64
2023/01/06 07:21:02;;;;;;;8.75;3.50;;;;;;;5.00;100.00;96526.22;5083127;28;20129;-63
2023/01/06 07:23:29;;;;;;;7.00;3.70;;;;;;;4.94;100.00;96522.19;5084626;28;20067;-62
2023/01/06 07:25:56;;;;;;;3.90;3.50;;;;;;;4.97;100.00;96526.38;5078449;28;20032;-64
2023/01/06 07:28:23;;;;;;;11.23;4.35;;;;;;;4.97;100.00;96534.19;5088107;28;20046;-63
2023/01/06 07:30:49;;;;;;;9.07;4.35;;;;;;;4.95;100.00;96536.06;5090646;28;20493;-65
2023/01/06 07:33:15;;;;;;;9.50;4.80;;;;;;;4.93;100.00;96535.31;5089706;28;20035;-72
2023/01/06 07:35:40;;;;;;;18.48;6.32;;;;;;;4.93;100.00;96537.91;5089631;28;20032;-72
2023/01/06 07:38:07;;;;;;;17.98;6.25;;;;;;;4.98;100.00;96541.94;5087607;28;20028;-72
2023/01/06 07:40:33;;;;;;;26.33;6.25;;;;;;;5.00;100.00;96542.72;5089261;28;20058;-71
2023/01/06 07:43:06;;;;;;;17.00;5.88;;;;;;;5.02;100.00;96547.84;5086955;28;20673;-71
2023/01/06 07:45:32;;;;;;;22.05;6.60;;;;;;;5.01;100.00;96541.78;5082291;28;20036;-71
2023/01/06 07:47:58;;;;;;;14.73;6.00;;;;;;;5.00;100.00;96547.94;5077930;28;20032;-68
2023/01/06 07:50:24;;;;;;;19.50;10.98;;;;;;;5.01;100.00;96547.00;5085959;28;20040;-67
2023/01/06 07:52:49;;;;;;;17.52;12.63;;;;;;;5.07;100.00;96545.81;5082191;28;20465;-68
2023/01/06 07:55:15;;;;;;;6.93;5.93;;;;;;;5.20;100.00;96545.97;5080462;28;20070;-67
2023/01/06 07:57:40;;;;;;;7.32;6.72;;;;;;;5.19;99.06;96552.09;5079264;28;20036;-67
2023/01/06 08:00:06;;;;;;;5.50;4.90;;;;;;;5.23;99.13;96547.56;5086349;28;20040;-67
2023/01/06 08:02:31;;;;;;;4.78;4.30;;;;;;;5.22;99.18;96546.72;5084054;28;20105;-67
2023/01/06 08:04:57;;;;;;;9.05;4.22;;;;;;;5.13;99.80;96545.47;5083947;28;20083;-67
2023/01/06 08:07:22;;;;;;;7.88;5.18;;;;;;;5.12;100.00;96542.94;5081517;28;20141;-62
2023/01/06 08:09:47;;;;;;;6.40;5.80;;;;;;;5.06;100.00;96546.75;5084391;28;20036;-67
2023/01/06 08:12:13;;;;;;;7.22;5.50;;;;;;;5.04;100.00;96550.34;5081796;28;20039;-67
2023/01/06 08:14:38;;;;;;;14.60;5.40;;;;;;;5.03;100.00;96552.16;5084219;28;20052;-66
2023/01/06 08:17:04;;;;;;;10.45;6.63;;;;;;;5.11;100.00;96549.94;5078053;28;20043;-66
2023/01/06 08:19:29;;;;;;;14.75;8.25;;;;;;;5.18;100.00;96546.97;5086532;28;20039;-67
2023/01/06 08:21:54;;;;;;;12.70;11.55;;;;;;;5.20;100.00;96548.56;5086341;28;20028;-67
2023/01/06 08:24:20;;;;;;;15.73;14.02;;;;;;;5.24;100.00;96552.69;5068077;28;20063;-66
2023/01/06 08:26:45;;;;;;;15.80;14.13;;;;;;;5.31;100.00;96545.34;5086693;28;20109;-62
2023/01/06 08:29:10;;;;;;;18.08;16.48;;;;;;;5.35;100.00;96546.84;5087436;28;20046;-64
2023/01/06 08:31:36;;;;;;;20.50;18.45;;;;;;;5.44;100.00;96550.69;5087934;28;20047;-64
2023/01/06 08:34:01;;;;;;;15.48;13.82;;;;;;;5.51;99.75;96544.16;5082406;28;20041;-64
2023/01/06 08:36:27;;;;;;;8.48;7.68;;;;;;;5.56;98.75;96551.75;5078859;28;20052;-64
2023/01/06 08:38:52;;;;;;;10.90;7.53;;;;;;;5.58;99.86;96542.03;5075014;28;20094;-65
2023/01/06 08:41:19;;;;;;;10.05;7.80;;;;;;;5.64;100.00;96541.72;5086261;28;20036;-63
2023/01/06 08:43:45;;;;;;;9.63;8.73;;;;;;;5.74;99.96;96547.19;5088499;28;20051;-63
2023/01/06 08:46:13;;;;;;;13.15;11.85;;;;;;;5.81;99.49;96535.47;5087349;28;20081;-62
2023/01/06 08:48:38;;;;;;;22.45;20.23;;;;;;;5.81;99.31;96539.84;5088106;28;20027;-63
2023/01/06 08:51:06;;;;;;;19.95;16.73;;;;;;;5.79;99.48;96545.19;5083911;28;20414;-64
2023/01/06 08:53:32;;;;;;;9.70;6.80;;;;;;;5.81;96.02;96542.47;5078235;28;20042;-63
2023/01/06 08:55:58;;;;;;;8.07;7.10;;;;;;;5.89;97.47;96542.88;5077629;28;20115;-63
2023/01/06 08:58:23;;;;;;;10.65;9.55;;;;;;;6.01;97.50;96531.69;5080850;28;20035;-64
2023/01/06 09:00:49;;;;;;;8.05;7.35;;;;;;;6.10;97.51;96537.31;5084383;28;20047;-63
2023/01/06 09:03:14;;;;;;;7.07;6.28;;;;;;;6.19;97.01;96541.97;5084673;28;20047;-63
2023/01/06 09:05:39;;;;;;;14.30;12.80;;;;;;;6.21;96.14;96552.34;5079884;28;20545;-66
2023/01/06 09:08:05;;;;;;;11.90;10.15;;;;;;;6.20;94.76;96550.66;5085584;28;20123;-63
2023/01/06 09:10:30;;;;;;;6.55;5.95;;;;;;;6.23;94.24;96553.91;5082530;28;20121;-63
2023/01/06 09:12:55;;;;;;;6.47;5.88;;;;;;;6.32;94.31;96551.69;5086590;28;20040;-63
2023/01/06 09:15:21;;;;;;;7.97;6.65;;;;;;;6.33;94.84;96558.59;5077239;28;20074;-63
2023/01/06 09:17:46;;;;;;;8.30;7.50;;;;;;;6.25;95.41;96552.03;5084450;28;20036;-64
2023/01/06 09:20:11;;;;;;;8.55;7.07;;;;;;;6.28;95.95;96558.88;5087370;28;20537;-63
2023/01/06 09:22:37;;;;;;;6.70;6.10;;;;;;;6.31;94.94;96558.66;5088357;28;20766;-64
2023/01/06 09:25:03;;;;;;;7.43;5.70;;;;;;;6.44;93.51;96553.53;5082800;28;20039;-64
2023/01/06 09:27:28;;;;;;;9.38;5.90;;;;;;;6.61;92.14;96562.94;5084117;28;20039;-63
2023/01/06 09:29:53;;;;;;;33.95;7.53;;;;;;;6.76;92.21;96542.84;5076127;28;20413;-63
2023/01/06 09:32:19;;;;;;;27.50;8.82;;;;;;;6.93;90.82;96552.22;5073922;28;20035;-65
2023/01/06 09:34:44;;;;;;;21.23;8.65;;;;;;;7.05;91.52;96545.34;5078619;28;20079;-64
2023/01/06 09:37:10;;;;;;;9.55;6.60;;;;;;;7.17;89.80;96551.56;5073707;28;20040;-64
2023/01/06 09:39:38;;;;;;;7.60;6.30;;;;;;;7.24;89.32;96555.47;5074059;28;20067;-64
2023/01/06 09:42:25;;;;;;;10.40;6.65;;;;;;;7.29;88.45;96558.66;5084639;28;20134;-67
2023/01/06 09:44:57;;;;;;;10.35;5.22;;;;;;;7.19;87.95;96551.50;5081077;28;20066;-62
2023/01/06 09:47:31;;;;;;;15.15;5.72;;;;;;;7.16;87.64;96553.34;5076486;28;20460;-64
2023/01/06 09:50:13;;;;;;;6.00;5.40;;;;;;;7.25;88.91;96558.94;5086306;28;20040;-64
2023/01/06 09:52:45;;;;;;;7.80;7.10;;;;;;;7.53;88.42;96554.50;5082831;28;20029;-64
2023/01/06 09:55:37;;;;;;;11.70;7.95;;;;;;;7.63;87.61;96550.34;5076508;28;20024;-64
2023/01/06 09:58:16;;;;;;;5.90;5.38;;;;;;;7.97;85.55;96550.66;5083088;28;20027;-64
2023/01/06 10:00:44;;;;;;;5.47;4.97;;;;;;;8.27;84.77;96543.41;5085265;28;20103;-64
2023/01/06 10:03:20;;;;;;;5.55;5.07;;;;;;;8.53;84.80;96552.13;5085661;28;20047;-67
2023/01/06 10:06:10;;;;;;;4.32;3.83;;;;;;;8.72;81.79;96558.69;5078360;28;20048;-63
2023/01/06 10:09:00;;;;;;;4.85;4.45;;;;;;;8.80;83.20;96550.25;5076108;28;20115;-62
2023/01/06 10:11:50;;;;;;;5.63;5.13;;;;;;;8.67;82.34;96559.03;5086643;28;20043;-62
2023/01/06 10:14:23;;;;;;;7.03;4.53;;;;;;;8.70;81.30;96555.31;5085696;28;20040;-62
2023/01/06 10:17:10;;;;;;;4.10;3.70;;;;;;;8.88;82.42;96558.44;5086497;28;20032;-63
2023/01/06 10:20:09;;;;;;;4.70;4.30;;;;;;;8.97;82.23;96552.50;5086200;28;20491;-63
2023/01/06 10:22:40;;;;;;;6.03;3.42;;;;;;;9.02;81.31;96549.56;5092338;28;20502;-61
2023/01/06 10:25:40;;;;;;;3.72;3.42;;;;;;;8.95;81.76;96548.31;5079596;28;20028;-64
2023/01/06 10:28:28;;;;;;;4.78;4.38;;;;;;;9.22;82.26;96549.91;5074319;28;20043;-64
2023/01/06 10:30:57;;;;;;;5.85;4.20;;;;;;;9.36;80.45;96541.81;5081921;28;20033;-64
2023/01/06 10:33:25;;;;;;;5.43;4.93;;;;;;;9.42;80.17;96536.13;5075390;28;20537;-65
2023/01/06 10:35:53;;;;;;;8.38;4.60;;;;;;;9.40;81.21;96545.06;5086521;28;20082;-65
2023/01/06 10:38:25;;;;;;;6.88;6.28;;;;;;;9.31;81.46;96546.59;5089757;28;20397;-65
2023/01/06 10:40:52;;;;;;;6.47;5.88;;;;;;;9.39;80.67;96532.88;5089276;28;20542;-62
2023/01/06 10:43:21;;;;;;;11.30;5.65;;;;;;;9.50;79.62;96532.91;5086841;28;20063;-62
2023/01/06 10:45:47;;;;;;;5.47;4.97;;;;;;;9.40;80.11;96527.53;5074305;28;20532;-64
2023/01/06 10:48:19;;;;;;;5.13;4.72;;;;;;;9.53;79.19;96521.34;5086862;28;20028;-64
2023/01/06 10:50:44;;;;;;;4.78;4.35;;;;;;;9.58;79.13;96527.09;5082070;28;20032;-64
2023/01/06 10:53:11;;;;;;;4.82;4.43;;;;;;;9.61;78.92;96516.34;5081798;28;20059;-64
2023/01/06 10:55:42;;;;;;;4.30;3.67;;;;;;;9.72;78.43;96510.25;5091706;28;20039;-64
2023/01/06 10:58:17;;;;;;;4.55;4.13;;;;;;;9.90;78.37;96502.78;5079375;28;20429;-64
2023/01/06 11:01:05;;;;;;;8.05;3.80;;;;;;;10.16;78.23;96513.91;5089757;28;20500;-67
2023/01/06 11:03:30;;;;;;;4.22;3.85;;;;;;;10.35;78.38;96503.75;5075692;28;20037;-69
2023/01/06 11:06:24;;;;;;;3.83;3.30;;;;;;;10.51;74.47;96498.13;5081212;28;20036;-68
2023/01/06 11:08:49;;;;;;;4.93;4.40;;;;;;;10.66;76.38;96494.28;5072156;28;20506;-68
2023/01/06 11:11:17;;;;;;;4.82;4.40;;;;;;;10.44;75.91;96479.34;5082872;28;20043;-69
2023/01/06 11:13:49;;;;;;;4.20;3.83;;;;;;;10.43;76.22;96482.94;5087795;28;20039;-69
2023/01/06 11:16:23;;;;;;;5.18;4.13;;;;;;;10.72;74.61;96477.13;5088039;28;20123;-69
2023/01/06 11:18:57;;;;;;;4.50;4.20;;;;;;;10.41;74.33;96474.34;5088288;28;20070;-64
2023/01/06 11:21:37;;;;;;;5.03;4.13;;;;;;;10.49;75.34;96473.72;5083420;28;20067;-63
2023/01/06 11:24:24;;;;;;;4.85;4.47;;;;;;;10.35;75.95;96465.09;5085558;28;20111;-63
2023/01/06 11:26:54;;;;;;;5.45;4.95;;;;;;;10.34;75.50;96458.16;5081533;28;20074;-62
2023/01/06 11:29:31;;;;;;;5.50;4.43;;;;;;;10.40;75.91;96462.09;5089832;28;20040;-63
2023/01/06 11:32:01;;;;;;;5.45;4.57;;;;;;;10.54;74.79;96456.63;5084601;28;20028;-64
2023/01/06 11:34:29;;;;;;;9.75;8.63;;;;;;;10.66;74.04;96452.16;5089185;28;20038;-64
2023/01/06 11:36:57;;;;;;;9.88;7.35;;;;;;;10.74;73.41;96451.53;5085857;28;20063;-63
2023/01/06 11:39:26;;;;;;;5.68;5.18;;;;;;;10.84;73.18;96449.81;5089430;28;20043;-70
2023/01/06 11:41:54;;;;;;;8.43;6.97;;;;;;;10.69;73.93;96449.28;5089172;28;20038;-72
2023/01/06 11:44:32;;;;;;;7.20;5.15;;;;;;;10.67;72.02;96445.06;5088710;28;20497;-71
2023/01/06 11:47:20;;;;;;;5.78;4.97;;;;;;;10.86;71.32;96437.34;5085978;28;20405;-72
2023/01/06 11:49:47;;;;;;;5.85;5.25;;;;;;;10.60;71.48;96442.09;5088762;28;20509;-73